Search for airport 
image banner adimage banner adimage banner ad
image banner ad

27CL - Sopwith Farm

Located in Pleasant Grove, United States

ICAO - 27CL, IATA -

Data provided by Airmate  

General information

Coordinates: N38°44'50" W121°34'22"
Elevation is 20 feet MSL.
Magnetic variation is 16° East
View others Airports in California

Operational data

Special qualification required
Current time UTC:
Current local time:
Weather at : KSMF - Sacramento Intl ( 6 km )
METAR: KSMF 270553Z 21016KT 10SM SCT200 23/04 A2988 RMK AO2 SLP119 T02280039 10294 20228 50022
TAF: KSMF 270218Z 2702/2724 20015KT P6SM SCT200 FM270400 16012KT P6SM OVC150 FM270700 15010KT P6SM VCSH OVC150 FM271300 17004KT P6SM OVC100 FM272000 32007KT P6SM SCT200
View NOTAMs / SUP AIP / TFR affecting this airport [VIEW]
Communications frequencies: [VIEW]

Runways:

RWY identifierQFULength (ft)Width (ft)SurfaceLDA (ft)
16200060OTHER
34200060OTHER

Airport contact information

Address: Pleasant Grove United States

Satellite view of 27CL